sensor_id;sensor_type;location;lat;lon;timestamp;temperature;humidity
2621;DHT22;1320;48.128;11.592;2023-08-06T00:02:13;17.60;99.90
2621;DHT22;1320;48.128;11.592;2023-08-06T00:04:39;17.50;99.90
2621;DHT22;1320;48.128;11.592;2023-08-06T00:07:05;17.50;99.90
2621;DHT22;1320;48.128;11.592;2023-08-06T00:09:30;17.50;99.90
2621;DHT22;1320;48.128;11.592;2023-08-06T00:11:56;17.40;99.90
2621;DHT22;1320;48.128;11.592;2023-08-06T00:14:21;17.40;99.90
2621;DHT22;1320;48.128;11.592;2023-08-06T00:16:47;17.40;99.90
2621;DHT22;1320;48.128;11.592;2023-08-06T00:19:13;17.30;99.90
2621;DHT22;1320;48.128;11.592;2023-08-06T00:21:38;17.30;99.90
2621;DHT22;1320;48.128;11.592;2023-08-06T00:24:04;17.30;99.90
2621;DHT22;1320;48.128;11.592;2023-08-06T00:26:30;17.30;99.90
2621;DHT22;1320;48.128;11.592;2023-08-06T00:28:55;17.20;99.90
2621;DHT22;1320;48.128;11.592;2023-08-06T00:31:21;17.10;99.90
2621;DHT22;1320;48.128;11.592;2023-08-06T00:33:46;17.00;99.90
2621;DHT22;1320;48.128;11.592;2023-08-06T00:36:12;16.90;99.90
2621;DHT22;1320;48.128;11.592;2023-08-06T00:38:38;16.90;99.90
2621;DHT22;1320;48.128;11.592;2023-08-06T00:41:03;16.90;99.90
2621;DHT22;1320;48.128;11.592;2023-08-06T00:43:29;16.90;99.90
2621;DHT22;1320;48.128;11.592;2023-08-06T00:45:55;16.80;99.90
2621;DHT22;1320;48.128;11.592;2023-08-06T00:48:21;16.80;99.90
2621;DHT22;1320;48.128;11.592;2023-08-06T00:50:47;16.80;99.90
2621;DHT22;1320;48.128;11.592;2023-08-06T00:53:13;16.70;99.90
2621;DHT22;1320;48.128;11.592;2023-08-06T00:55:39;16.60;99.90
2621;DHT22;1320;48.128;11.592;2023-08-06T00:58:05;16.50;99.90
2621;DHT22;1320;48.128;11.592;2023-08-06T01:00:31;16.50;99.90
2621;DHT22;1320;48.128;11.592;2023-08-06T01:02:57;16.40;99.90
2621;DHT22;1320;48.128;11.592;2023-08-06T01:05:22;16.40;99.90
2621;DHT22;1320;48.128;11.592;2023-08-06T01:13:45;16.30;99.90
2621;DHT22;1320;48.128;11.592;2023-08-06T01:16:18;16.20;99.90
2621;DHT22;1320;48.128;11.592;2023-08-06T01:18:44;16.20;99.90
2621;DHT22;1320;48.128;11.592;2023-08-06T01:21:17;16.20;99.90
2621;DHT22;1320;48.128;11.592;2023-08-06T01:23:43;16.20;99.90
2621;DHT22;1320;48.128;11.592;2023-08-06T01:29:02;16.00;99.90
2621;DHT22;1320;48.128;11.592;2023-08-06T01:31:33;16.00;99.90
2621;DHT22;1320;48.128;11.592;2023-08-06T01:34:03;16.00;99.90
2621;DHT22;1320;48.128;11.592;2023-08-06T01:36:28;16.00;99.90
2621;DHT22;1320;48.128;11.592;2023-08-06T01:38:55;16.00;99.90
2621;DHT22;1320;48.128;11.592;2023-08-06T01:41:22;16.00;99.90
2621;DHT22;1320;48.128;11.592;2023-08-06T01:43:48;15.90;99.90
2621;DHT22;1320;48.128;11.592;2023-08-06T01:46:14;15.90;99.90
2621;DHT22;1320;48.128;11.592;2023-08-06T01:48:39;15.90;99.90
2621;DHT22;1320;48.128;11.592;2023-08-06T01:51:05;15.90;99.90
2621;DHT22;1320;48.128;11.592;2023-08-06T01:53:32;15.90;99.90
2621;DHT22;1320;48.128;11.592;2023-08-06T01:55:57;15.90;99.90
2621;DHT22;1320;48.128;11.592;2023-08-06T01:58:23;15.80;99.90
2621;DHT22;1320;48.128;11.592;2023-08-06T02:00:49;15.80;99.90
2621;DHT22;1320;48.128;11.592;2023-08-06T02:03:15;15.80;99.90
2621;DHT22;1320;48.128;11.592;2023-08-06T02:05:40;15.80;99.90
2621;DHT22;1320;48.128;11.592;2023-08-06T02:08:06;15.70;99.90
2621;DHT22;1320;48.128;11.592;2023-08-06T02:10:32;15.70;99.90
2621;DHT22;1320;48.128;11.592;2023-08-06T02:12:57;15.70;99.90
2621;DHT22;1320;48.128;11.592;2023-08-06T02:15:23;15.80;99.90
2621;DHT22;1320;48.128;11.592;2023-08-06T02:17:48;15.80;99.90
2621;DHT22;1320;48.128;11.592;2023-08-06T02:20:14;15.80;99.90
2621;DHT22;1320;48.128;11.592;2023-08-06T02:22:40;15.80;99.90
2621;DHT22;1320;48.128;11.592;2023-08-06T02:25:05;15.70;99.90
2621;DHT22;1320;48.128;11.592;2023-08-06T02:27:31;15.70;99.90
2621;DHT22;1320;48.128;11.592;2023-08-06T02:29:57;15.70;99.90
2621;DHT22;1320;48.128;11.592;2023-08-06T02:32:22;15.70;99.90
2621;DHT22;1320;48.128;11.592;2023-08-06T02:34:48;15.80;99.90
2621;DHT22;1320;48.128;11.592;2023-08-06T02:37:14;15.80;99.90
2621;DHT22;1320;48.128;11.592;2023-08-06T02:39:40;15.80;99.90
2621;DHT22;1320;48.128;11.592;2023-08-06T02:42:07;15.80;99.90
2621;DHT22;1320;48.128;11.592;2023-08-06T02:44:33;15.80;99.90
2621;DHT22;1320;48.128;11.592;2023-08-06T02:46:59;15.80;99.90
2621;DHT22;1320;48.128;11.592;2023-08-06T02:49:25;15.80;99.90
2621;DHT22;1320;48.128;11.592;2023-08-06T02:51:51;15.70;99.90
2621;DHT22;1320;48.128;11.592;2023-08-06T02:54:17;15.70;99.90
2621;DHT22;1320;48.128;11.592;2023-08-06T02:56:44;15.70;99.90
2621;DHT22;1320;48.128;11.592;2023-08-06T02:59:10;15.80;99.90
2621;DHT22;1320;48.128;11.592;2023-08-06T03:01:36;15.70;99.90
2621;DHT22;1320;48.128;11.592;2023-08-06T03:04:03;15.80;99.90
2621;DHT22;1320;48.128;11.592;2023-08-06T03:06:29;15.70;99.90
2621;DHT22;1320;48.128;11.592;2023-08-06T03:08:54;15.70;99.90
2621;DHT22;1320;48.128;11.592;2023-08-06T03:11:20;15.70;99.90
2621;DHT22;1320;48.128;11.592;2023-08-06T03:13:47;15.60;99.90
2621;DHT22;1320;48.128;11.592;2023-08-06T03:16:13;15.60;99.90
2621;DHT22;1320;48.128;11.592;2023-08-06T03:18:38;15.60;99.90
2621;DHT22;1320;48.128;11.592;2023-08-06T03:21:04;15.50;99.90
2621;DHT22;1320;48.128;11.592;2023-08-06T03:23:30;15.40;99.90
2621;DHT22;1320;48.128;11.592;2023-08-06T03:25:55;15.40;99.90
2621;DHT22;1320;48.128;11.592;2023-08-06T03:28:21;15.30;99.90
2621;DHT22;1320;48.128;11.592;2023-08-06T03:30:47;15.30;99.90
2621;DHT22;1320;48.128;11.592;2023-08-06T03:33:13;15.30;99.90
2621;DHT22;1320;48.128;11.592;2023-08-06T03:35:39;15.30;99.90
2621;DHT22;1320;48.128;11.592;2023-08-06T03:38:05;15.30;99.90
2621;DHT22;1320;48.128;11.592;2023-08-06T03:40:31;15.30;99.90
2621;DHT22;1320;48.128;11.592;2023-08-06T03:42:56;15.30;99.90
2621;DHT22;1320;48.128;11.592;2023-08-06T03:45:22;15.30;99.90
2621;DHT22;1320;48.128;11.592;2023-08-06T03:47:48;15.30;99.90
2621;DHT22;1320;48.128;11.592;2023-08-06T03:50:13;15.30;99.90
2621;DHT22;1320;48.128;11.592;2023-08-06T03:52:39;15.40;99.90
2621;DHT22;1320;48.128;11.592;2023-08-06T03:55:05;15.40;99.90
2621;DHT22;1320;48.128;11.592;2023-08-06T03:57:30;15.40;99.90
2621;DHT22;1320;48.128;11.592;2023-08-06T03:59:56;15.50;99.90
2621;DHT22;1320;48.128;11.592;2023-08-06T04:02:22;15.50;99.90
2621;DHT22;1320;48.128;11.592;2023-08-06T04:04:48;15.50;99.90
2621;DHT22;1320;48.128;11.592;2023-08-06T04:07:14;15.50;99.90
2621;DHT22;1320;48.128;11.592;2023-08-06T04:09:57;15.50;99.90
2621;DHT22;1320;48.128;11.592;2023-08-06T04:12:23;15.50;99.90
2621;DHT22;1320;48.128;11.592;2023-08-06T04:14:50;15.40;99.90
2621;DHT22;1320;48.128;11.592;2023-08-06T04:17:17;15.40;99.90
2621;DHT22;1320;48.128;11.592;2023-08-06T04:19:52;15.40;99.90
2621;DHT22;1320;48.128;11.592;2023-08-06T04:22:18;15.40;99.90
2621;DHT22;1320;48.128;11.592;2023-08-06T04:24:44;15.40;99.90
2621;DHT22;1320;48.128;11.592;2023-08-06T04:27:10;15.40;99.90
2621;DHT22;1320;48.128;11.592;2023-08-06T04:29:36;15.40;99.90
2621;DHT22;1320;48.128;11.592;2023-08-06T04:32:03;15.30;99.90
2621;DHT22;1320;48.128;11.592;2023-08-06T04:34:29;15.30;99.90
2621;DHT22;1320;48.128;11.592;2023-08-06T04:36:54;15.30;99.90
2621;DHT22;1320;48.128;11.592;2023-08-06T04:39:20;15.30;99.90
2621;DHT22;1320;48.128;11.592;2023-08-06T04:41:46;15.30;99.90
2621;DHT22;1320;48.128;11.592;2023-08-06T04:44:11;15.20;99.90
2621;DHT22;1320;48.128;11.592;2023-08-06T04:46:37;15.20;99.90
2621;DHT22;1320;48.128;11.592;2023-08-06T04:49:02;15.20;99.90
2621;DHT22;1320;48.128;11.592;2023-08-06T04:51:28;15.30;99.90
2621;DHT22;1320;48.128;11.592;2023-08-06T04:53:54;15.30;99.90
2621;DHT22;1320;48.128;11.592;2023-08-06T04:56:19;15.30;99.90
2621;DHT22;1320;48.128;11.592;2023-08-06T04:58:45;15.30;99.90
2621;DHT22;1320;48.128;11.592;2023-08-06T05:01:10;15.30;99.90
2621;DHT22;1320;48.128;11.592;2023-08-06T05:03:36;15.40;99.90
2621;DHT22;1320;48.128;11.592;2023-08-06T05:06:02;15.50;99.90
2621;DHT22;1320;48.128;11.592;2023-08-06T05:08:27;15.50;99.90
2621;DHT22;1320;48.128;11.592;2023-08-06T05:10:53;15.60;99.90
2621;DHT22;1320;48.128;11.592;2023-08-06T05:13:19;15.70;99.90
2621;DHT22;1320;48.128;11.592;2023-08-06T05:15:44;15.70;99.90
2621;DHT22;1320;48.128;11.592;2023-08-06T05:18:12;15.70;99.90
2621;DHT22;1320;48.128;11.592;2023-08-06T05:20:42;15.70;99.90
2621;DHT22;1320;48.128;11.592;2023-08-06T05:23:08;15.80;99.90
2621;DHT22;1320;48.128;11.592;2023-08-06T05:25:38;15.80;99.90
2621;DHT22;1320;48.128;11.592;2023-08-06T05:28:04;15.80;99.90
2621;DHT22;1320;48.128;11.592;2023-08-06T05:30:30;15.80;99.90
2621;DHT22;1320;48.128;11.592;2023-08-06T05:32:55;15.80;99.90
2621;DHT22;1320;48.128;11.592;2023-08-06T05:35:21;15.90;99.90
2621;DHT22;1320;48.128;11.592;2023-08-06T05:37:48;15.90;99.90
2621;DHT22;1320;48.128;11.592;2023-08-06T05:40:13;15.90;99.90
2621;DHT22;1320;48.128;11.592;2023-08-06T05:42:40;15.90;99.90
2621;DHT22;1320;48.128;11.592;2023-08-06T05:45:06;15.90;99.90
2621;DHT22;1320;48.128;11.592;2023-08-06T05:47:32;15.90;99.90
2621;DHT22;1320;48.128;11.592;2023-08-06T05:49:57;15.90;99.90
2621;DHT22;1320;48.128;11.592;2023-08-06T05:52:23;15.90;99.90
2621;DHT22;1320;48.128;11.592;2023-08-06T05:54:49;15.90;99.90
2621;DHT22;1320;48.128;11.592;2023-08-06T05:57:15;16.00;99.90
2621;DHT22;1320;48.128;11.592;2023-08-06T05:59:41;16.00;99.90
2621;DHT22;1320;48.128;11.592;2023-08-06T06:02:07;16.00;99.90
2621;DHT22;1320;48.128;11.592;2023-08-06T06:04:33;16.10;99.90
2621;DHT22;1320;48.128;11.592;2023-08-06T06:06:58;16.20;99.90
2621;DHT22;1320;48.128;11.592;2023-08-06T06:09:24;16.30;99.90
2621;DHT22;1320;48.128;11.592;2023-08-06T06:11:49;16.30;99.90
2621;DHT22;1320;48.128;11.592;2023-08-06T06:14:17;16.40;99.90
2621;DHT22;1320;48.128;11.592;2023-08-06T06:16:43;16.50;99.90
2621;DHT22;1320;48.128;11.592;2023-08-06T06:19:08;16.60;99.90
2621;DHT22;1320;48.128;11.592;2023-08-06T06:21:34;16.70;99.90
2621;DHT22;1320;48.128;11.592;2023-08-06T06:24:00;16.70;99.90
2621;DHT22;1320;48.128;11.592;2023-08-06T06:26:26;16.70;99.90
2621;DHT22;1320;48.128;11.592;2023-08-06T06:28:52;16.70;99.90
2621;DHT22;1320;48.128;11.592;2023-08-06T06:31:18;16.80;99.90
2621;DHT22;1320;48.128;11.592;2023-08-06T06:33:44;16.80;99.90
2621;DHT22;1320;48.128;11.592;2023-08-06T06:36:09;16.90;99.90
2621;DHT22;1320;48.128;11.592;2023-08-06T06:38:35;17.00;99.90
2621;DHT22;1320;48.128;11.592;2023-08-06T06:41:01;17.00;99.90
2621;DHT22;1320;48.128;11.592;2023-08-06T06:43:28;17.00;99.90
2621;DHT22;1320;48.128;11.592;2023-08-06T06:45:57;17.10;99.90
2621;DHT22;1320;48.128;11.592;2023-08-06T06:48:25;17.20;99.90
2621;DHT22;1320;48.128;11.592;2023-08-06T06:50:51;17.20;99.90
2621;DHT22;1320;48.128;11.592;2023-08-06T06:53:16;17.30;99.90
2621;DHT22;1320;48.128;11.592;2023-08-06T06:55:42;17.40;99.90
2621;DHT22;1320;48.128;11.592;2023-08-06T06:58:08;17.50;99.90
2621;DHT22;1320;48.128;11.592;2023-08-06T07:00:38;17.50;99.90
2621;DHT22;1320;48.128;11.592;2023-08-06T07:03:04;17.60;99.90
2621;DHT22;1320;48.128;11.592;2023-08-06T07:05:29;17.60;99.90
2621;DHT22;1320;48.128;11.592;2023-08-06T07:07:55;17.70;99.90
2621;DHT22;1320;48.128;11.592;2023-08-06T07:10:20;17.70;99.90
2621;DHT22;1320;48.128;11.592;2023-08-06T07:12:46;17.80;99.90
2621;DHT22;1320;48.128;11.592;2023-08-06T07:15:12;18.00;99.90
2621;DHT22;1320;48.128;11.592;2023-08-06T07:17:37;18.10;99.90
2621;DHT22;1320;48.128;11.592;2023-08-06T07:20:04;18.20;99.90
2621;DHT22;1320;48.128;11.592;2023-08-06T07:22:29;18.20;99.90
2621;DHT22;1320;48.128;11.592;2023-08-06T07:24:55;18.20;99.90
2621;DHT22;1320;48.128;11.592;2023-08-06T07:27:21;18.10;99.90
2621;DHT22;1320;48.128;11.592;2023-08-06T07:29:46;18.10;99.90
2621;DHT22;1320;48.128;11.592;2023-08-06T07:32:13;18.10;99.90
2621;DHT22;1320;48.128;11.592;2023-08-06T07:34:39;18.00;99.90
2621;DHT22;1320;48.128;11.592;2023-08-06T07:37:05;17.80;99.90
2621;DHT22;1320;48.128;11.592;2023-08-06T07:39:31;17.70;99.90
2621;DHT22;1320;48.128;11.592;2023-08-06T07:41:57;17.70;99.90
2621;DHT22;1320;48.128;11.592;2023-08-06T07:44:23;17.60;99.90
2621;DHT22;1320;48.128;11.592;2023-08-06T07:46:49;17.40;99.90
2621;DHT22;1320;48.128;11.592;2023-08-06T07:49:15;17.30;99.90
2621;DHT22;1320;48.128;11.592;2023-08-06T07:51:40;17.30;99.90
2621;DHT22;1320;48.128;11.592;2023-08-06T07:54:06;17.20;99.90
2621;DHT22;1320;48.128;11.592;2023-08-06T07:56:32;17.10;99.90
2621;DHT22;1320;48.128;11.592;2023-08-06T07:58:58;17.10;99.90
2621;DHT22;1320;48.128;11.592;2023-08-06T08:01:23;17.10;99.90
2621;DHT22;1320;48.128;11.592;2023-08-06T08:03:49;17.10;99.90
2621;DHT22;1320;48.128;11.592;2023-08-06T08:06:14;17.10;99.90
2621;DHT22;1320;48.128;11.592;2023-08-06T08:08:40;17.30;99.90
2621;DHT22;1320;48.128;11.592;2023-08-06T08:11:06;17.60;99.90
2621;DHT22;1320;48.128;11.592;2023-08-06T08:13:31;17.80;99.90
2621;DHT22;1320;48.128;11.592;2023-08-06T08:15:58;18.10;99.90
2621;DHT22;1320;48.128;11.592;2023-08-06T08:18:25;18.50;99.90
2621;DHT22;1320;48.128;11.592;2023-08-06T08:20:51;18.70;99.90
2621;DHT22;1320;48.128;11.592;2023-08-06T08:23:17;18.90;99.90
2621;DHT22;1320;48.128;11.592;2023-08-06T08:25:43;19.00;99.90
2621;DHT22;1320;48.128;11.592;2023-08-06T08:28:09;19.40;99.90
2621;DHT22;1320;48.128;11.592;2023-08-06T08:30:34;19.80;99.90
2621;DHT22;1320;48.128;11.592;2023-08-06T08:33:00;20.00;99.90
2621;DHT22;1320;48.128;11.592;2023-08-06T08:35:26;20.30;99.90
2621;DHT22;1320;48.128;11.592;2023-08-06T08:37:51;20.30;99.90
2621;DHT22;1320;48.128;11.592;2023-08-06T08:40:17;20.30;99.90
2621;DHT22;1320;48.128;11.592;2023-08-06T08:42:43;20.20;99.90
2621;DHT22;1320;48.128;11.592;2023-08-06T08:45:15;20.10;99.90
2621;DHT22;1320;48.128;11.592;2023-08-06T08:47:44;19.90;99.90
2621;DHT22;1320;48.128;11.592;2023-08-06T08:50:10;19.70;99.90
2621;DHT22;1320;48.128;11.592;2023-08-06T08:52:38;19.40;99.90
2621;DHT22;1320;48.128;11.592;2023-08-06T08:55:07;19.20;99.90
2621;DHT22;1320;48.128;11.592;2023-08-06T08:57:33;19.10;99.90
2621;DHT22;1320;48.128;11.592;2023-08-06T08:59:59;18.90;99.90
2621;DHT22;1320;48.128;11.592;2023-08-06T09:02:28;18.60;99.90
2621;DHT22;1320;48.128;11.592;2023-08-06T09:04:57;18.50;99.90
2621;DHT22;1320;48.128;11.592;2023-08-06T09:07:25;18.50;99.90
2621;DHT22;1320;48.128;11.592;2023-08-06T09:09:52;18.60;99.90
2621;DHT22;1320;48.128;11.592;2023-08-06T09:12:22;18.70;99.90
2621;DHT22;1320;48.128;11.592;2023-08-06T09:14:48;18.80;99.90
2621;DHT22;1320;48.128;11.592;2023-08-06T09:17:13;18.70;99.90
2621;DHT22;1320;48.128;11.592;2023-08-06T09:19:44;18.60;99.90
2621;DHT22;1320;48.128;11.592;2023-08-06T09:22:12;18.50;99.90
2621;DHT22;1320;48.128;11.592;2023-08-06T09:24:41;18.40;99.90
2621;DHT22;1320;48.128;11.592;2023-08-06T09:27:14;18.40;99.90
2621;DHT22;1320;48.128;11.592;2023-08-06T09:29:41;18.40;99.90
2621;DHT22;1320;48.128;11.592;2023-08-06T09:32:07;18.30;99.90
2621;DHT22;1320;48.128;11.592;2023-08-06T09:34:33;18.30;99.90
2621;DHT22;1320;48.128;11.592;2023-08-06T09:36:58;18.30;99.90
2621;DHT22;1320;48.128;11.592;2023-08-06T09:39:28;18.10;99.90
2621;DHT22;1320;48.128;11.592;2023-08-06T09:41:59;17.90;99.90
2621;DHT22;1320;48.128;11.592;2023-08-06T09:44:31;17.80;99.90
2621;DHT22;1320;48.128;11.592;2023-08-06T09:46:59;17.80;99.90
2621;DHT22;1320;48.128;11.592;2023-08-06T09:49:45;17.90;99.90
2621;DHT22;1320;48.128;11.592;2023-08-06T09:52:14;17.90;99.90
2621;DHT22;1320;48.128;11.592;2023-08-06T09:54:43;17.80;99.90
2621;DHT22;1320;48.128;11.592;2023-08-06T09:57:09;17.80;99.90
2621;DHT22;1320;48.128;11.592;2023-08-06T09:59:39;17.60;99.90
2621;DHT22;1320;48.128;11.592;2023-08-06T10:02:14;17.50;99.90
2621;DHT22;1320;48.128;11.592;2023-08-06T10:04:40;17.60;99.90
2621;DHT22;1320;48.128;11.592;2023-08-06T10:07:08;17.60;99.90
2621;DHT22;1320;48.128;11.592;2023-08-06T10:09:33;17.70;99.90
2621;DHT22;1320;48.128;11.592;2023-08-06T10:12:00;17.90;99.90
2621;DHT22;1320;48.128;11.592;2023-08-06T10:14:30;17.90;99.90
2621;DHT22;1320;48.128;11.592;2023-08-06T10:16:57;17.70;99.90
2621;DHT22;1320;48.128;11.592;2023-08-06T10:19:25;17.60;99.90
2621;DHT22;1320;48.128;11.592;2023-08-06T10:24:59;17.40;99.90
2621;DHT22;1320;48.128;11.592;2023-08-06T10:27:40;17.40;99.90
2621;DHT22;1320;48.128;11.592;2023-08-06T10:32:51;17.70;99.90
2621;DHT22;1320;48.128;11.592;2023-08-06T10:35:48;18.00;99.90
2621;DHT22;1320;48.128;11.592;2023-08-06T10:38:19;18.30;99.90
2621;DHT22;1320;48.128;11.592;2023-08-06T10:43:30;18.70;99.90
2621;DHT22;1320;48.128;11.592;2023-08-06T10:46:00;18.70;99.90
2621;DHT22;1320;48.128;11.592;2023-08-06T10:48:40;18.70;99.90
2621;DHT22;1320;48.128;11.592;2023-08-06T10:51:10;18.70;99.90
2621;DHT22;1320;48.128;11.592;2023-08-06T10:53:37;18.60;99.90
2621;DHT22;1320;48.128;11.592;2023-08-06T10:56:13;18.50;99.90
2621;DHT22;1320;48.128;11.592;2023-08-06T10:58:43;18.40;99.90
2621;DHT22;1320;48.128;11.592;2023-08-06T11:01:09;18.40;99.90
2621;DHT22;1320;48.128;11.592;2023-08-06T11:03:36;18.40;99.90
2621;DHT22;1320;48.128;11.592;2023-08-06T11:06:02;18.40;99.90
2621;DHT22;1320;48.128;11.592;2023-08-06T11:08:32;18.40;99.90
2621;DHT22;1320;48.128;11.592;2023-08-06T11:11:08;18.40;99.90
2621;DHT22;1320;48.128;11.592;2023-08-06T11:13:36;18.50;99.90
2621;DHT22;1320;48.128;11.592;2023-08-06T11:16:02;18.50;99.90
2621;DHT22;1320;48.128;11.592;2023-08-06T11:18:28;18.50;99.90
2621;DHT22;1320;48.128;11.592;2023-08-06T11:20:54;18.50;99.90
2621;DHT22;1320;48.128;11.592;2023-08-06T11:23:20;18.50;99.90
2621;DHT22;1320;48.128;11.592;2023-08-06T11:25:46;18.40;99.90
2621;DHT22;1320;48.128;11.592;2023-08-06T11:28:12;18.20;99.90
2621;DHT22;1320;48.128;11.592;2023-08-06T11:30:38;18.00;99.90
2621;DHT22;1320;48.128;11.592;2023-08-06T11:33:07;18.00;99.90
2621;DHT22;1320;48.128;11.592;2023-08-06T11:35:35;18.00;99.90
2621;DHT22;1320;48.128;11.592;2023-08-06T11:38:01;18.00;99.90
2621;DHT22;1320;48.128;11.592;2023-08-06T11:40:27;18.10;99.90
2621;DHT22;1320;48.128;11.592;2023-08-06T11:42:52;18.10;99.90
2621;DHT22;1320;48.128;11.592;2023-08-06T11:45:22;18.10;99.90
2621;DHT22;1320;48.128;11.592;2023-08-06T11:47:50;18.00;99.90
2621;DHT22;1320;48.128;11.592;2023-08-06T11:50:27;17.80;99.90
2621;DHT22;1320;48.128;11.592;2023-08-06T11:52:58;17.70;99.90
2621;DHT22;1320;48.128;11.592;2023-08-06T11:55:24;17.70;99.90
2621;DHT22;1320;48.128;11.592;2023-08-06T11:57:51;17.80;99.90
2621;DHT22;1320;48.128;11.592;2023-08-06T12:00:16;18.00;99.90
2621;DHT22;1320;48.128;11.592;2023-08-06T12:02:45;18.10;99.90
2621;DHT22;1320;48.128;11.592;2023-08-06T12:05:15;18.20;99.90
2621;DHT22;1320;48.128;11.592;2023-08-06T12:07:44;18.40;99.90
2621;DHT22;1320;48.128;11.592;2023-08-06T12:10:10;18.50;99.90
2621;DHT22;1320;48.128;11.592;2023-08-06T12:12:36;18.60;99.90
2621;DHT22;1320;48.128;11.592;2023-08-06T12:15:03;18.60;99.90
2621;DHT22;1320;48.128;11.592;2023-08-06T12:17:29;18.60;99.90
2621;DHT22;1320;48.128;11.592;2023-08-06T12:19:54;18.60;99.90
2621;DHT22;1320;48.128;11.592;2023-08-06T12:22:20;18.40;99.90
2621;DHT22;1320;48.128;11.592;2023-08-06T12:24:46;18.30;99.90
2621;DHT22;1320;48.128;11.592;2023-08-06T12:27:13;18.30;99.90
2621;DHT22;1320;48.128;11.592;2023-08-06T12:29:47;18.20;99.90
2621;DHT22;1320;48.128;11.592;2023-08-06T12:32:13;18.10;99.90
2621;DHT22;1320;48.128;11.592;2023-08-06T12:34:40;18.00;99.90
2621;DHT22;1320;48.128;11.592;2023-08-06T12:37:07;18.00;99.90
2621;DHT22;1320;48.128;11.592;2023-08-06T12:39:33;18.00;99.90
2621;DHT22;1320;48.128;11.592;2023-08-06T12:42:00;18.00;99.90
2621;DHT22;1320;48.128;11.592;2023-08-06T12:44:26;18.00;99.90
2621;DHT22;1320;48.128;11.592;2023-08-06T12:46:52;17.90;99.90
2621;DHT22;1320;48.128;11.592;2023-08-06T12:49:19;17.90;99.90
2621;DHT22;1320;48.128;11.592;2023-08-06T12:51:47;17.80;99.90
2621;DHT22;1320;48.128;11.592;2023-08-06T12:54:13;17.80;99.90
2621;DHT22;1320;48.128;11.592;2023-08-06T12:56:38;17.70;99.90
2621;DHT22;1320;48.128;11.592;2023-08-06T12:59:04;17.60;99.90
2621;DHT22;1320;48.128;11.592;2023-08-06T13:01:30;17.60;99.90
2621;DHT22;1320;48.128;11.592;2023-08-06T13:03:55;17.70;99.90
2621;DHT22;1320;48.128;11.592;2023-08-06T13:06:21;17.80;99.90
2621;DHT22;1320;48.128;11.592;2023-08-06T13:08:46;17.90;99.90
2621;DHT22;1320;48.128;11.592;2023-08-06T13:11:12;17.90;99.90
2621;DHT22;1320;48.128;11.592;2023-08-06T13:13:38;17.90;99.90
2621;DHT22;1320;48.128;11.592;2023-08-06T13:16:03;17.80;99.90
2621;DHT22;1320;48.128;11.592;2023-08-06T13:18:29;18.00;99.90
2621;DHT22;1320;48.128;11.592;2023-08-06T13:20:55;18.40;99.90
2621;DHT22;1320;48.128;11.592;2023-08-06T13:23:21;18.60;99.90
2621;DHT22;1320;48.128;11.592;2023-08-06T13:25:46;18.80;99.90
2621;DHT22;1320;48.128;11.592;2023-08-06T13:28:12;18.80;99.90
2621;DHT22;1320;48.128;11.592;2023-08-06T13:30:39;18.60;99.90
2621;DHT22;1320;48.128;11.592;2023-08-06T13:33:10;18.40;99.90
2621;DHT22;1320;48.128;11.592;2023-08-06T13:35:37;18.00;99.90
2621;DHT22;1320;48.128;11.592;2023-08-06T13:38:03;17.60;99.90
2621;DHT22;1320;48.128;11.592;2023-08-06T13:40:33;17.20;99.90
2621;DHT22;1320;48.128;11.592;2023-08-06T13:42:59;16.90;99.90
2621;DHT22;1320;48.128;11.592;2023-08-06T13:45:25;16.90;99.90
2621;DHT22;1320;48.128;11.592;2023-08-06T13:47:51;17.20;99.90
2621;DHT22;1320;48.128;11.592;2023-08-06T13:50:16;17.40;99.90
2621;DHT22;1320;48.128;11.592;2023-08-06T13:52:42;17.40;99.90
2621;DHT22;1320;48.128;11.592;2023-08-06T13:55:08;17.30;99.90
2621;DHT22;1320;48.128;11.592;2023-08-06T13:57:37;17.20;99.90
2621;DHT22;1320;48.128;11.592;2023-08-06T14:00:03;16.90;99.90
2621;DHT22;1320;48.128;11.592;2023-08-06T14:02:28;16.70;99.90
2621;DHT22;1320;48.128;11.592;2023-08-06T14:04:55;16.70;99.90
2621;DHT22;1320;48.128;11.592;2023-08-06T14:07:21;16.60;99.90
2621;DHT22;1320;48.128;11.592;2023-08-06T14:09:46;16.50;99.90
2621;DHT22;1320;48.128;11.592;2023-08-06T14:12:13;16.40;99.90
2621;DHT22;1320;48.128;11.592;2023-08-06T14:14:39;16.40;99.90
2621;DHT22;1320;48.128;11.592;2023-08-06T14:17:05;16.40;99.90
2621;DHT22;1320;48.128;11.592;2023-08-06T14:19:30;16.20;99.90
2621;DHT22;1320;48.128;11.592;2023-08-06T14:21:56;16.20;99.90
2621;DHT22;1320;48.128;11.592;2023-08-06T14:24:21;16.10;99.90
2621;DHT22;1320;48.128;11.592;2023-08-06T14:26:47;16.00;99.90
2621;DHT22;1320;48.128;11.592;2023-08-06T14:29:13;15.90;99.90
2621;DHT22;1320;48.128;11.592;2023-08-06T14:31:39;15.80;99.90
2621;DHT22;1320;48.128;11.592;2023-08-06T14:34:05;15.70;99.90
2621;DHT22;1320;48.128;11.592;2023-08-06T14:36:31;15.60;99.90
2621;DHT22;1320;48.128;11.592;2023-08-06T14:38:56;15.50;99.90
2621;DHT22;1320;48.128;11.592;2023-08-06T14:41:22;15.40;99.90
2621;DHT22;1320;48.128;11.592;2023-08-06T14:43:48;15.40;99.90
2621;DHT22;1320;48.128;11.592;2023-08-06T14:46:14;15.40;99.90
2621;DHT22;1320;48.128;11.592;2023-08-06T14:48:39;15.40;99.90
2621;DHT22;1320;48.128;11.592;2023-08-06T14:51:05;15.30;99.90
2621;DHT22;1320;48.128;11.592;2023-08-06T14:53:31;15.30;99.90
2621;DHT22;1320;48.128;11.592;2023-08-06T14:55:56;15.30;99.90
2621;DHT22;1320;48.128;11.592;2023-08-06T14:58:22;15.30;99.90
2621;DHT22;1320;48.128;11.592;2023-08-06T15:00:47;15.30;99.90
2621;DHT22;1320;48.128;11.592;2023-08-06T15:03:13;15.20;99.90
2621;DHT22;1320;48.128;11.592;2023-08-06T15:05:38;15.10;99.90
2621;DHT22;1320;48.128;11.592;2023-08-06T15:08:05;15.10;99.90
2621;DHT22;1320;48.128;11.592;2023-08-06T15:10:31;15.10;99.90
2621;DHT22;1320;48.128;11.592;2023-08-06T15:12:56;15.10;99.90
2621;DHT22;1320;48.128;11.592;2023-08-06T15:15:22;15.10;99.90
2621;DHT22;1320;48.128;11.592;2023-08-06T15:17:48;15.20;99.90
2621;DHT22;1320;48.128;11.592;2023-08-06T15:20:13;15.20;99.90
2621;DHT22;1320;48.128;11.592;2023-08-06T15:22:39;15.20;99.90
2621;DHT22;1320;48.128;11.592;2023-08-06T15:25:05;15.30;99.90
2621;DHT22;1320;48.128;11.592;2023-08-06T15:27:31;15.30;99.90
2621;DHT22;1320;48.128;11.592;2023-08-06T15:29:58;15.30;99.90
2621;DHT22;1320;48.128;11.592;2023-08-06T15:32:23;15.40;99.90
2621;DHT22;1320;48.128;11.592;2023-08-06T15:34:50;15.40;99.90
2621;DHT22;1320;48.128;11.592;2023-08-06T15:37:16;15.50;99.90
2621;DHT22;1320;48.128;11.592;2023-08-06T15:39:41;15.50;99.90
2621;DHT22;1320;48.128;11.592;2023-08-06T15:42:07;15.50;99.90
2621;DHT22;1320;48.128;11.592;2023-08-06T15:44:32;15.50;99.90
2621;DHT22;1320;48.128;11.592;2023-08-06T15:46:58;15.50;99.90
2621;DHT22;1320;48.128;11.592;2023-08-06T15:49:24;15.40;99.90
2621;DHT22;1320;48.128;11.592;2023-08-06T15:51:49;15.40;99.90
2621;DHT22;1320;48.128;11.592;2023-08-06T15:54:15;15.30;99.90
2621;DHT22;1320;48.128;11.592;2023-08-06T15:56:41;15.30;99.90
2621;DHT22;1320;48.128;11.592;2023-08-06T15:59:25;15.20;99.90